sensor_id;sensor_type;location;lat;lon;timestamp;pressure;altitude;pressure_sealevel;temperature;humidity
41706;BME280;27385;51.096;17.190;2023-08-30T00:01:52;99283.96;;;15.13;100.00
41706;BME280;27385;51.096;17.190;2023-08-30T00:04:32;99284.47;;;15.13;100.00
41706;BME280;27385;51.096;17.190;2023-08-30T00:07:04;99289.67;;;15.13;100.00
41706;BME280;27385;51.096;17.190;2023-08-30T00:09:35;99298.39;;;15.16;100.00
41706;BME280;27385;51.096;17.190;2023-08-30T00:12:07;99298.23;;;15.16;100.00
41706;BME280;27385;51.096;17.190;2023-08-30T00:14:38;99294.48;;;15.14;100.00
41706;BME280;27385;51.096;17.190;2023-08-30T00:17:10;99295.85;;;15.11;100.00
41706;BME280;27385;51.096;17.190;2023-08-30T00:19:41;99295.10;;;15.09;100.00
41706;BME280;27385;51.096;17.190;2023-08-30T00:22:12;99297.35;;;15.09;100.00
41706;BME280;27385;51.096;17.190;2023-08-30T00:24:42;99298.73;;;15.09;100.00
41706;BME280;27385;51.096;17.190;2023-08-30T00:27:13;99303.45;;;15.09;100.00
41706;BME280;27385;51.096;17.190;2023-08-30T00:29:44;99302.68;;;15.08;100.00
41706;BME280;27385;51.096;17.190;2023-08-30T00:32:14;99298.97;;;15.08;100.00
41706;BME280;27385;51.096;17.190;2023-08-30T00:34:46;99300.05;;;15.07;100.00
41706;BME280;27385;51.096;17.190;2023-08-30T00:37:16;99293.01;;;15.06;100.00
41706;BME280;27385;51.096;17.190;2023-08-30T00:39:48;99289.45;;;15.04;100.00
41706;BME280;27385;51.096;17.190;2023-08-30T00:42:19;99290.84;;;15.04;100.00
41706;BME280;27385;51.096;17.190;2023-08-30T00:44:50;99295.45;;;15.02;100.00
41706;BME280;27385;51.096;17.190;2023-08-30T00:47:22;99287.45;;;14.99;100.00
41706;BME280;27385;51.096;17.190;2023-08-30T00:49:53;99282.63;;;14.96;100.00
41706;BME280;27385;51.096;17.190;2023-08-30T00:52:24;99275.56;;;14.93;100.00
41706;BME280;27385;51.096;17.190;2023-08-30T00:54:55;99273.00;;;14.90;100.00
41706;BME280;27385;51.096;17.190;2023-08-30T00:57:26;99276.84;;;14.89;100.00
41706;BME280;27385;51.096;17.190;2023-08-30T00:59:57;99277.77;;;14.88;100.00
41706;BME280;27385;51.096;17.190;2023-08-30T01:02:28;99273.41;;;14.87;100.00
41706;BME280;27385;51.096;17.190;2023-08-30T01:04:59;99278.33;;;14.85;100.00
41706;BME280;27385;51.096;17.190;2023-08-30T01:07:30;99279.05;;;14.84;100.00
41706;BME280;27385;51.096;17.190;2023-08-30T01:10:01;99279.05;;;14.84;100.00
41706;BME280;27385;51.096;17.190;2023-08-30T01:12:39;99280.23;;;14.85;100.00
41706;BME280;27385;51.096;17.190;2023-08-30T01:15:13;99279.11;;;14.84;100.00
41706;BME280;27385;51.096;17.190;2023-08-30T01:17:49;99276.52;;;14.83;100.00
41706;BME280;27385;51.096;17.190;2023-08-30T01:20:23;99285.95;;;14.84;100.00
41706;BME280;27385;51.096;17.190;2023-08-30T01:23:01;99289.50;;;14.86;100.00
41706;BME280;27385;51.096;17.190;2023-08-30T01:25:45;99298.13;;;14.87;100.00
41706;BME280;27385;51.096;17.190;2023-08-30T01:28:22;99294.70;;;14.87;100.00
41706;BME280;27385;51.096;17.190;2023-08-30T01:30:54;99297.40;;;14.88;100.00
41706;BME280;27385;51.096;17.190;2023-08-30T01:33:27;99303.02;;;14.89;100.00
41706;BME280;27385;51.096;17.190;2023-08-30T01:35:59;99306.63;;;14.89;100.00
41706;BME280;27385;51.096;17.190;2023-08-30T01:38:33;99303.85;;;14.91;100.00
41706;BME280;27385;51.096;17.190;2023-08-30T01:41:05;99312.88;;;14.93;100.00
41706;BME280;27385;51.096;17.190;2023-08-30T01:43:37;99308.41;;;14.94;100.00
41706;BME280;27385;51.096;17.190;2023-08-30T01:46:08;99308.30;;;14.95;100.00
41706;BME280;27385;51.096;17.190;2023-08-30T01:48:40;99302.17;;;14.93;100.00
41706;BME280;27385;51.096;17.190;2023-08-30T01:51:11;99294.48;;;14.93;100.00
41706;BME280;27385;51.096;17.190;2023-08-30T01:53:43;99293.73;;;14.91;100.00
41706;BME280;27385;51.096;17.190;2023-08-30T01:56:15;99289.77;;;14.89;100.00
41706;BME280;27385;51.096;17.190;2023-08-30T01:58:46;99293.91;;;14.89;100.00
41706;BME280;27385;51.096;17.190;2023-08-30T02:01:17;99291.92;;;14.88;100.00
41706;BME280;27385;51.096;17.190;2023-08-30T02:03:47;99294.79;;;14.88;100.00
41706;BME280;27385;51.096;17.190;2023-08-30T02:06:21;99292.26;;;14.87;100.00
41706;BME280;27385;51.096;17.190;2023-08-30T02:08:57;99290.27;;;14.87;100.00
41706;BME280;27385;51.096;17.190;2023-08-30T02:11:34;99292.76;;;14.86;100.00
41706;BME280;27385;51.096;17.190;2023-08-30T02:14:06;99296.92;;;14.86;100.00
41706;BME280;27385;51.096;17.190;2023-08-30T02:16:39;99299.69;;;14.85;100.00
41706;BME280;27385;51.096;17.190;2023-08-30T02:19:11;99298.16;;;14.83;100.00
41706;BME280;27385;51.096;17.190;2023-08-30T02:21:43;99291.14;;;14.82;100.00
41706;BME280;27385;51.096;17.190;2023-08-30T02:24:14;99294.28;;;14.80;100.00
41706;BME280;27385;51.096;17.190;2023-08-30T02:26:45;99287.61;;;14.78;100.00
41706;BME280;27385;51.096;17.190;2023-08-30T02:29:15;99281.19;;;14.77;100.00
41706;BME280;27385;51.096;17.190;2023-08-30T02:31:46;99277.60;;;14.75;100.00
41706;BME280;27385;51.096;17.190;2023-08-30T02:34:17;99278.17;;;14.74;100.00
41706;BME280;27385;51.096;17.190;2023-08-30T02:36:48;99272.20;;;14.74;100.00
41706;BME280;27385;51.096;17.190;2023-08-30T02:39:19;99270.53;;;14.73;100.00
41706;BME280;27385;51.096;17.190;2023-08-30T02:41:51;99273.91;;;14.71;100.00
41706;BME280;27385;51.096;17.190;2023-08-30T02:44:21;99273.88;;;14.70;100.00
41706;BME280;27385;51.096;17.190;2023-08-30T02:46:52;99270.05;;;14.69;100.00
41706;BME280;27385;51.096;17.190;2023-08-30T02:49:23;99268.73;;;14.69;100.00
41706;BME280;27385;51.096;17.190;2023-08-30T02:51:54;99267.23;;;14.67;100.00
41706;BME280;27385;51.096;17.190;2023-08-30T02:54:24;99263.98;;;14.66;100.00
41706;BME280;27385;51.096;17.190;2023-08-30T02:56:55;99260.53;;;14.64;100.00
41706;BME280;27385;51.096;17.190;2023-08-30T02:59:26;99260.55;;;14.62;100.00
41706;BME280;27385;51.096;17.190;2023-08-30T03:01:57;99254.14;;;14.60;100.00
41706;BME280;27385;51.096;17.190;2023-08-30T03:04:28;99256.39;;;14.57;100.00
41706;BME280;27385;51.096;17.190;2023-08-30T03:06:59;99248.44;;;14.56;100.00
41706;BME280;27385;51.096;17.190;2023-08-30T03:09:29;99245.11;;;14.55;100.00
41706;BME280;27385;51.096;17.190;2023-08-30T03:12:00;99251.73;;;14.53;100.00
41706;BME280;27385;51.096;17.190;2023-08-30T03:14:31;99255.47;;;14.52;100.00
41706;BME280;27385;51.096;17.190;2023-08-30T03:17:02;99253.19;;;14.51;100.00
41706;BME280;27385;51.096;17.190;2023-08-30T03:19:33;99247.34;;;14.49;100.00
41706;BME280;27385;51.096;17.190;2023-08-30T03:22:03;99251.04;;;14.46;100.00
41706;BME280;27385;51.096;17.190;2023-08-30T03:24:34;99255.55;;;14.45;100.00
41706;BME280;27385;51.096;17.190;2023-08-30T03:27:05;99260.45;;;14.45;100.00
41706;BME280;27385;51.096;17.190;2023-08-30T03:29:37;99261.63;;;14.46;100.00
41706;BME280;27385;51.096;17.190;2023-08-30T03:32:08;99260.34;;;14.47;100.00
41706;BME280;27385;51.096;17.190;2023-08-30T03:34:39;99268.22;;;14.49;100.00
41706;BME280;27385;51.096;17.190;2023-08-30T03:37:10;99264.74;;;14.50;100.00
41706;BME280;27385;51.096;17.190;2023-08-30T03:39:41;99267.09;;;14.50;100.00
41706;BME280;27385;51.096;17.190;2023-08-30T03:42:12;99268.65;;;14.52;100.00
41706;BME280;27385;51.096;17.190;2023-08-30T03:44:43;99266.33;;;14.54;100.00
41706;BME280;27385;51.096;17.190;2023-08-30T03:47:14;99260.30;;;14.54;100.00
41706;BME280;27385;51.096;17.190;2023-08-30T03:49:46;99266.20;;;14.55;100.00
41706;BME280;27385;51.096;17.190;2023-08-30T03:52:18;99269.83;;;14.56;100.00
41706;BME280;27385;51.096;17.190;2023-08-30T03:54:49;99272.77;;;14.57;100.00
41706;BME280;27385;51.096;17.190;2023-08-30T03:57:19;99274.85;;;14.58;100.00
41706;BME280;27385;51.096;17.190;2023-08-30T03:59:51;99274.35;;;14.57;100.00
41706;BME280;27385;51.096;17.190;2023-08-30T04:02:22;99275.59;;;14.56;100.00
41706;BME280;27385;51.096;17.190;2023-08-30T04:04:52;99276.48;;;14.54;100.00
41706;BME280;27385;51.096;17.190;2023-08-30T04:07:23;99278.55;;;14.52;100.00
41706;BME280;27385;51.096;17.190;2023-08-30T04:09:54;99270.65;;;14.51;100.00
41706;BME280;27385;51.096;17.190;2023-08-30T04:12:24;99265.16;;;14.49;100.00
41706;BME280;27385;51.096;17.190;2023-08-30T04:14:55;99264.93;;;14.50;100.00
41706;BME280;27385;51.096;17.190;2023-08-30T04:17:26;99265.81;;;14.50;100.00
41706;BME280;27385;51.096;17.190;2023-08-30T04:19:57;99273.84;;;14.53;100.00
41706;BME280;27385;51.096;17.190;2023-08-30T04:22:27;99271.56;;;14.55;100.00
41706;BME280;27385;51.096;17.190;2023-08-30T04:24:58;99275.64;;;14.55;100.00
41706;BME280;27385;51.096;17.190;2023-08-30T04:27:29;99278.66;;;14.56;100.00
41706;BME280;27385;51.096;17.190;2023-08-30T04:30:00;99272.95;;;14.55;100.00
41706;BME280;27385;51.096;17.190;2023-08-30T04:32:31;99271.51;;;14.56;100.00
41706;BME280;27385;51.096;17.190;2023-08-30T04:35:02;99271.60;;;14.57;100.00
41706;BME280;27385;51.096;17.190;2023-08-30T04:37:33;99273.48;;;14.57;100.00
41706;BME280;27385;51.096;17.190;2023-08-30T04:40:05;99271.55;;;14.58;100.00
41706;BME280;27385;51.096;17.190;2023-08-30T04:42:36;99273.23;;;14.57;100.00
41706;BME280;27385;51.096;17.190;2023-08-30T04:45:09;99271.55;;;14.57;100.00
41706;BME280;27385;51.096;17.190;2023-08-30T04:47:40;99271.14;;;14.56;100.00
41706;BME280;27385;51.096;17.190;2023-08-30T04:50:12;99273.34;;;14.56;100.00
41706;BME280;27385;51.096;17.190;2023-08-30T04:52:43;99274.21;;;14.56;100.00
41706;BME280;27385;51.096;17.190;2023-08-30T04:55:13;99272.61;;;14.57;100.00
41706;BME280;27385;51.096;17.190;2023-08-30T04:57:47;99272.30;;;14.57;100.00
41706;BME280;27385;51.096;17.190;2023-08-30T05:00:19;99273.98;;;14.57;100.00
41706;BME280;27385;51.096;17.190;2023-08-30T05:02:49;99271.16;;;14.54;100.00
41706;BME280;27385;51.096;17.190;2023-08-30T05:05:20;99268.55;;;14.51;100.00
41706;BME280;27385;51.096;17.190;2023-08-30T05:07:51;99268.05;;;14.50;100.00
41706;BME280;27385;51.096;17.190;2023-08-30T05:10:21;99266.05;;;14.51;100.00
41706;BME280;27385;51.096;17.190;2023-08-30T05:12:52;99259.55;;;14.52;100.00
41706;BME280;27385;51.096;17.190;2023-08-30T05:15:23;99262.30;;;14.53;100.00
41706;BME280;27385;51.096;17.190;2023-08-30T05:17:53;99263.52;;;14.54;100.00
41706;BME280;27385;51.096;17.190;2023-08-30T05:20:24;99262.35;;;14.53;100.00
41706;BME280;27385;51.096;17.190;2023-08-30T05:22:55;99262.45;;;14.54;100.00
41706;BME280;27385;51.096;17.190;2023-08-30T05:25:26;99263.83;;;14.54;100.00
41706;BME280;27385;51.096;17.190;2023-08-30T05:27:56;99268.15;;;14.55;100.00
41706;BME280;27385;51.096;17.190;2023-08-30T05:30:27;99261.52;;;14.55;100.00
41706;BME280;27385;51.096;17.190;2023-08-30T05:32:58;99260.08;;;14.56;100.00
41706;BME280;27385;51.096;17.190;2023-08-30T05:35:28;99256.09;;;14.56;100.00
41706;BME280;27385;51.096;17.190;2023-08-30T05:37:59;99259.38;;;14.58;100.00
41706;BME280;27385;51.096;17.190;2023-08-30T05:40:30;99253.42;;;14.60;100.00
41706;BME280;27385;51.096;17.190;2023-08-30T05:43:01;99259.14;;;14.64;100.00
41706;BME280;27385;51.096;17.190;2023-08-30T05:45:32;99264.58;;;14.67;100.00
41706;BME280;27385;51.096;17.190;2023-08-30T05:48:03;99265.94;;;14.68;100.00
41706;BME280;27385;51.096;17.190;2023-08-30T05:50:34;99266.73;;;14.70;100.00
41706;BME280;27385;51.096;17.190;2023-08-30T05:53:05;99270.08;;;14.72;100.00
41706;BME280;27385;51.096;17.190;2023-08-30T05:55:36;99268.33;;;14.74;100.00
41706;BME280;27385;51.096;17.190;2023-08-30T05:58:06;99267.45;;;14.75;100.00
41706;BME280;27385;51.096;17.190;2023-08-30T06:00:37;99271.25;;;14.76;100.00
41706;BME280;27385;51.096;17.190;2023-08-30T06:03:08;99274.01;;;14.77;100.00
41706;BME280;27385;51.096;17.190;2023-08-30T06:05:40;99274.59;;;14.78;100.00
41706;BME280;27385;51.096;17.190;2023-08-30T06:08:12;99273.11;;;14.79;100.00
41706;BME280;27385;51.096;17.190;2023-08-30T06:10:42;99274.73;;;14.81;100.00
41706;BME280;27385;51.096;17.190;2023-08-30T06:13:13;99276.10;;;14.83;100.00
41706;BME280;27385;51.096;17.190;2023-08-30T06:15:45;99282.04;;;14.86;100.00
41706;BME280;27385;51.096;17.190;2023-08-30T06:18:17;99282.73;;;14.88;100.00
41706;BME280;27385;51.096;17.190;2023-08-30T06:20:48;99283.61;;;14.91;100.00
41706;BME280;27385;51.096;17.190;2023-08-30T06:23:20;99285.98;;;14.93;100.00
41706;BME280;27385;51.096;17.190;2023-08-30T06:25:56;99291.17;;;14.96;100.00
41706;BME280;27385;51.096;17.190;2023-08-30T06:28:27;99292.38;;;15.00;100.00
41706;BME280;27385;51.096;17.190;2023-08-30T06:30:58;99296.58;;;15.03;100.00
41706;BME280;27385;51.096;17.190;2023-08-30T06:33:28;99292.63;;;15.04;100.00
41706;BME280;27385;51.096;17.190;2023-08-30T06:35:59;99292.70;;;15.07;100.00
41706;BME280;27385;51.096;17.190;2023-08-30T06:38:30;99298.48;;;15.08;100.00
41706;BME280;27385;51.096;17.190;2023-08-30T06:41:01;99302.63;;;15.10;100.00
41706;BME280;27385;51.096;17.190;2023-08-30T06:43:31;99305.84;;;15.10;100.00
41706;BME280;27385;51.096;17.190;2023-08-30T06:46:02;99305.26;;;15.11;100.00
41706;BME280;27385;51.096;17.190;2023-08-30T06:48:33;99310.84;;;15.14;100.00
41706;BME280;27385;51.096;17.190;2023-08-30T06:51:04;99312.96;;;15.16;100.00
41706;BME280;27385;51.096;17.190;2023-08-30T06:53:35;99311.94;;;15.15;100.00
41706;BME280;27385;51.096;17.190;2023-08-30T06:56:05;99313.09;;;15.17;100.00
41706;BME280;27385;51.096;17.190;2023-08-30T06:58:36;99314.52;;;15.17;100.00
41706;BME280;27385;51.096;17.190;2023-08-30T07:01:07;99314.56;;;15.17;100.00
41706;BME280;27385;51.096;17.190;2023-08-30T07:03:38;99314.20;;;15.17;100.00
41706;BME280;27385;51.096;17.190;2023-08-30T07:06:09;99319.02;;;15.17;100.00
41706;BME280;27385;51.096;17.190;2023-08-30T07:08:40;99322.42;;;15.18;100.00
41706;BME280;27385;51.096;17.190;2023-08-30T07:11:10;99324.20;;;15.19;100.00
41706;BME280;27385;51.096;17.190;2023-08-30T07:13:41;99324.95;;;15.21;100.00
41706;BME280;27385;51.096;17.190;2023-08-30T07:16:12;99321.40;;;15.22;100.00
41706;BME280;27385;51.096;17.190;2023-08-30T07:18:43;99321.66;;;15.22;100.00
41706;BME280;27385;51.096;17.190;2023-08-30T07:21:13;99323.86;;;15.21;100.00
41706;BME280;27385;51.096;17.190;2023-08-30T07:23:44;99328.49;;;15.20;100.00
41706;BME280;27385;51.096;17.190;2023-08-30T07:26:15;99333.36;;;15.19;100.00
41706;BME280;27385;51.096;17.190;2023-08-30T07:28:46;99334.00;;;15.18;100.00
41706;BME280;27385;51.096;17.190;2023-08-30T07:31:17;99330.20;;;15.17;100.00
41706;BME280;27385;51.096;17.190;2023-08-30T07:33:47;99328.88;;;15.17;100.00
41706;BME280;27385;51.096;17.190;2023-08-30T07:36:18;99331.08;;;15.18;100.00
41706;BME280;27385;51.096;17.190;2023-08-30T07:38:49;99337.23;;;15.19;100.00
41706;BME280;27385;51.096;17.190;2023-08-30T07:41:20;99339.75;;;15.22;100.00
41706;BME280;27385;51.096;17.190;2023-08-30T07:43:50;99341.52;;;15.27;100.00
41706;BME280;27385;51.096;17.190;2023-08-30T07:46:21;99342.81;;;15.30;100.00
41706;BME280;27385;51.096;17.190;2023-08-30T07:48:52;99345.66;;;15.27;100.00
41706;BME280;27385;51.096;17.190;2023-08-30T07:51:22;99344.59;;;15.24;100.00
41706;BME280;27385;51.096;17.190;2023-08-30T07:53:53;99343.31;;;15.23;100.00
41706;BME280;27385;51.096;17.190;2023-08-30T07:56:24;99339.59;;;15.23;100.00
41706;BME280;27385;51.096;17.190;2023-08-30T07:58:56;99342.44;;;15.27;100.00
41706;BME280;27385;51.096;17.190;2023-08-30T08:01:27;99343.77;;;15.31;100.00
41706;BME280;27385;51.096;17.190;2023-08-30T08:03:58;99336.77;;;15.33;100.00
41706;BME280;27385;51.096;17.190;2023-08-30T08:06:29;99341.38;;;15.33;100.00
41706;BME280;27385;51.096;17.190;2023-08-30T08:09:00;99336.05;;;15.27;100.00
41706;BME280;27385;51.096;17.190;2023-08-30T08:11:30;99344.92;;;15.26;100.00
41706;BME280;27385;51.096;17.190;2023-08-30T08:14:02;99343.33;;;15.22;100.00
41706;BME280;27385;51.096;17.190;2023-08-30T08:16:33;99343.30;;;15.18;100.00
41706;BME280;27385;51.096;17.190;2023-08-30T08:19:04;99345.55;;;15.18;100.00
41706;BME280;27385;51.096;17.190;2023-08-30T08:21:35;99340.15;;;15.19;100.00
41706;BME280;27385;51.096;17.190;2023-08-30T08:24:06;99346.99;;;15.19;100.00
41706;BME280;27385;51.096;17.190;2023-08-30T08:26:37;99344.70;;;15.23;100.00
41706;BME280;27385;51.096;17.190;2023-08-30T08:29:08;99345.67;;;15.25;100.00
41706;BME280;27385;51.096;17.190;2023-08-30T08:31:40;99349.46;;;15.26;100.00
41706;BME280;27385;51.096;17.190;2023-08-30T08:34:12;99352.86;;;15.27;100.00
41706;BME280;27385;51.096;17.190;2023-08-30T08:36:43;99356.55;;;15.28;100.00
41706;BME280;27385;51.096;17.190;2023-08-30T08:39:14;99357.62;;;15.28;100.00
41706;BME280;27385;51.096;17.190;2023-08-30T08:41:47;99355.19;;;15.26;100.00
41706;BME280;27385;51.096;17.190;2023-08-30T08:44:19;99354.36;;;15.30;100.00
41706;BME280;27385;51.096;17.190;2023-08-30T08:46:52;99358.78;;;15.35;100.00
41706;BME280;27385;51.096;17.190;2023-08-30T08:49:23;99364.14;;;15.41;100.00
41706;BME280;27385;51.096;17.190;2023-08-30T08:51:57;99369.65;;;15.43;100.00
41706;BME280;27385;51.096;17.190;2023-08-30T08:54:28;99371.03;;;15.42;100.00
41706;BME280;27385;51.096;17.190;2023-08-30T08:56:59;99372.20;;;15.44;100.00
41706;BME280;27385;51.096;17.190;2023-08-30T08:59:31;99383.13;;;15.44;100.00
41706;BME280;27385;51.096;17.190;2023-08-30T09:02:03;99386.11;;;15.42;100.00
41706;BME280;27385;51.096;17.190;2023-08-30T09:04:34;99383.84;;;15.39;100.00
41706;BME280;27385;51.096;17.190;2023-08-30T09:07:05;99385.21;;;15.40;100.00
41706;BME280;27385;51.096;17.190;2023-08-30T09:09:36;99387.86;;;15.40;100.00
41706;BME280;27385;51.096;17.190;2023-08-30T09:12:07;99390.49;;;15.38;100.00
41706;BME280;27385;51.096;17.190;2023-08-30T09:14:38;99391.73;;;15.38;100.00
41706;BME280;27385;51.096;17.190;2023-08-30T09:17:08;99387.73;;;15.38;100.00
41706;BME280;27385;51.096;17.190;2023-08-30T09:19:39;99387.73;;;15.39;100.00
41706;BME280;27385;51.096;17.190;2023-08-30T09:22:10;99392.11;;;15.35;100.00
41706;BME280;27385;51.096;17.190;2023-08-30T09:24:41;99391.59;;;15.29;100.00
41706;BME280;27385;51.096;17.190;2023-08-30T09:27:12;99392.27;;;15.27;100.00
41706;BME280;27385;51.096;17.190;2023-08-30T09:29:43;99392.46;;;15.26;100.00
41706;BME280;27385;51.096;17.190;2023-08-30T09:32:20;99391.08;;;15.29;100.00
41706;BME280;27385;51.096;17.190;2023-08-30T09:34:51;99388.55;;;15.35;100.00
41706;BME280;27385;51.096;17.190;2023-08-30T09:37:22;99387.05;;;15.39;100.00
41706;BME280;27385;51.096;17.190;2023-08-30T09:39:53;99388.41;;;15.43;100.00
41706;BME280;27385;51.096;17.190;2023-08-30T09:42:24;99382.48;;;15.47;100.00
41706;BME280;27385;51.096;17.190;2023-08-30T09:44:55;99381.48;;;15.52;100.00
41706;BME280;27385;51.096;17.190;2023-08-30T09:47:27;99378.80;;;15.55;100.00
41706;BME280;27385;51.096;17.190;2023-08-30T09:49:59;99380.98;;;15.58;100.00
41706;BME280;27385;51.096;17.190;2023-08-30T09:52:32;99381.29;;;15.62;100.00
41706;BME280;27385;51.096;17.190;2023-08-30T09:55:04;99376.95;;;15.64;100.00
41706;BME280;27385;51.096;17.190;2023-08-30T09:57:35;99383.36;;;15.64;100.00
41706;BME280;27385;51.096;17.190;2023-08-30T10:00:08;99379.27;;;15.63;100.00
41706;BME280;27385;51.096;17.190;2023-08-30T10:02:43;99379.23;;;15.63;100.00
41706;BME280;27385;51.096;17.190;2023-08-30T10:05:14;99382.67;;;15.62;100.00
41706;BME280;27385;51.096;17.190;2023-08-30T10:07:46;99382.41;;;15.56;100.00
41706;BME280;27385;51.096;17.190;2023-08-30T10:10:17;99378.23;;;15.51;100.00
41706;BME280;27385;51.096;17.190;2023-08-30T10:12:48;99380.54;;;15.50;100.00
41706;BME280;27385;51.096;17.190;2023-08-30T10:15:21;99379.36;;;15.51;100.00
41706;BME280;27385;51.096;17.190;2023-08-30T10:17:55;99387.34;;;15.54;100.00
41706;BME280;27385;51.096;17.190;2023-08-30T10:20:29;99382.52;;;15.58;100.00
41706;BME280;27385;51.096;17.190;2023-08-30T10:23:00;99389.20;;;15.60;100.00
41706;BME280;27385;51.096;17.190;2023-08-30T10:25:33;99389.05;;;15.60;100.00
41706;BME280;27385;51.096;17.190;2023-08-30T10:28:05;99389.27;;;15.59;100.00
41706;BME280;27385;51.096;17.190;2023-08-30T10:30:36;99392.69;;;15.62;100.00
41706;BME280;27385;51.096;17.190;2023-08-30T10:33:14;99387.11;;;15.66;100.00
41706;BME280;27385;51.096;17.190;2023-08-30T10:35:52;99384.34;;;15.73;100.00
41706;BME280;27385;51.096;17.190;2023-08-30T10:38:28;99379.69;;;15.79;100.00
41706;BME280;27385;51.096;17.190;2023-08-30T10:41:09;99381.75;;;15.85;100.00
41706;BME280;27385;51.096;17.190;2023-08-30T10:43:38;99380.11;;;15.88;100.00
41706;BME280;27385;51.096;17.190;2023-08-30T10:46:09;99379.44;;;15.85;100.00
41706;BME280;27385;51.096;17.190;2023-08-30T10:48:41;99382.04;;;15.82;99.99
41706;BME280;27385;51.096;17.190;2023-08-30T10:51:22;99382.84;;;15.80;100.00
41706;BME280;27385;51.096;17.190;2023-08-30T10:54:11;99386.77;;;15.84;100.00
41706;BME280;27385;51.096;17.190;2023-08-30T10:56:54;99388.45;;;15.88;100.00
41706;BME280;27385;51.096;17.190;2023-08-30T10:59:25;99386.31;;;15.94;99.63
41706;BME280;27385;51.096;17.190;2023-08-30T11:01:56;99389.26;;;15.98;99.36
41706;BME280;27385;51.096;17.190;2023-08-30T11:04:33;99389.75;;;16.02;99.35
41706;BME280;27385;51.096;17.190;2023-08-30T11:07:10;99395.23;;;16.08;99.49
41706;BME280;27385;51.096;17.190;2023-08-30T11:09:41;99394.35;;;16.15;99.39
41706;BME280;27385;51.096;17.190;2023-08-30T11:12:12;99390.39;;;16.19;99.44
41706;BME280;27385;51.096;17.190;2023-08-30T11:14:43;99395.05;;;16.22;98.89
41706;BME280;27385;51.096;17.190;2023-08-30T11:17:14;99394.75;;;16.22;99.27
41706;BME280;27385;51.096;17.190;2023-08-30T11:19:49;99396.39;;;16.22;99.48
41706;BME280;27385;51.096;17.190;2023-08-30T11:22:20;99397.77;;;16.21;99.34
41706;BME280;27385;51.096;17.190;2023-08-30T11:24:51;99400.71;;;16.20;99.03
41706;BME280;27385;51.096;17.190;2023-08-30T11:27:22;99397.80;;;16.20;99.07
41706;BME280;27385;51.096;17.190;2023-08-30T11:29:53;99393.84;;;16.24;99.40
41706;BME280;27385;51.096;17.190;2023-08-30T11:32:24;99387.41;;;16.31;99.28
41706;BME280;27385;51.096;17.190;2023-08-30T11:34:58;99386.52;;;16.36;99.25
41706;BME280;27385;51.096;17.190;2023-08-30T11:37:29;99385.02;;;16.42;98.90
41706;BME280;27385;51.096;17.190;2023-08-30T11:40:00;99385.29;;;16.44;98.51
41706;BME280;27385;51.096;17.190;2023-08-30T11:42:33;99387.48;;;16.47;98.19
41706;BME280;27385;51.096;17.190;2023-08-30T11:45:05;99385.67;;;16.50;98.08
41706;BME280;27385;51.096;17.190;2023-08-30T11:47:36;99387.55;;;16.50;97.93
41706;BME280;27385;51.096;17.190;2023-08-30T11:50:09;99388.17;;;16.51;97.36
41706;BME280;27385;51.096;17.190;2023-08-30T11:52:41;99388.89;;;16.51;97.73
41706;BME280;27385;51.096;17.190;2023-08-30T11:55:12;99393.70;;;16.49;97.17
41706;BME280;27385;51.096;17.190;2023-08-30T11:57:47;99388.83;;;16.46;97.12
41706;BME280;27385;51.096;17.190;2023-08-30T12:00:20;99387.71;;;16.47;97.12
41706;BME280;27385;51.096;17.190;2023-08-30T12:02:51;99393.89;;;16.50;97.03
41706;BME280;27385;51.096;17.190;2023-08-30T12:05:22;99388.06;;;16.56;96.88
41706;BME280;27385;51.096;17.190;2023-08-30T12:07:53;99380.45;;;16.64;97.21
41706;BME280;27385;51.096;17.190;2023-08-30T12:10:24;99376.25;;;16.76;97.06
41706;BME280;27385;51.096;17.190;2023-08-30T12:12:54;99377.33;;;16.88;97.02
41706;BME280;27385;51.096;17.190;2023-08-30T12:15:25;99376.45;;;16.99;97.03
41706;BME280;27385;51.096;17.190;2023-08-30T12:17:57;99374.14;;;17.06;96.42
41706;BME280;27385;51.096;17.190;2023-08-30T12:20:36;99373.34;;;17.08;95.65
41706;BME280;27385;51.096;17.190;2023-08-30T12:23:07;99377.02;;;17.06;95.79
41706;BME280;27385;51.096;17.190;2023-08-30T12:25:37;99376.58;;;17.03;94.70
41706;BME280;27385;51.096;17.190;2023-08-30T12:28:08;99371.88;;;17.00;94.22
41706;BME280;27385;51.096;17.190;2023-08-30T12:30:39;99369.56;;;16.95;93.69
41706;BME280;27385;51.096;17.190;2023-08-30T12:33:10;99362.88;;;16.93;94.08
41706;BME280;27385;51.096;17.190;2023-08-30T12:35:40;99364.94;;;16.92;94.09
41706;BME280;27385;51.096;17.190;2023-08-30T12:38:11;99365.34;;;16.93;94.16
41706;BME280;27385;51.096;17.190;2023-08-30T12:40:48;99366.61;;;16.94;93.52
41706;BME280;27385;51.096;17.190;2023-08-30T12:43:21;99370.90;;;16.92;94.02
41706;BME280;27385;51.096;17.190;2023-08-30T12:45:52;99372.62;;;16.88;93.85
41706;BME280;27385;51.096;17.190;2023-08-30T12:48:23;99379.20;;;16.80;92.66
41706;BME280;27385;51.096;17.190;2023-08-30T12:50:54;99375.61;;;16.67;92.95
41706;BME280;27385;51.096;17.190;2023-08-30T12:53:25;99379.18;;;16.57;93.49
41706;BME280;27385;51.096;17.190;2023-08-30T12:55:56;99379.13;;;16.52;93.67
41706;BME280;27385;51.096;17.190;2023-08-30T12:58:27;99383.25;;;16.50;93.75
41706;BME280;27385;51.096;17.190;2023-08-30T13:00:58;99383.26;;;16.46;93.57
41706;BME280;27385;51.096;17.190;2023-08-30T13:03:28;99379.44;;;16.44;93.96